Wind Star — C6CA9 — position and weather

sailwx.info

Track history (hours):
 
Tides and Currents Weather Stations Pressure Air Temp Water Temp Dewpoint Dewpoint Depression Visibility Wind Speed Wind Dir Waves Ship Positions

Wind Star

Operator: Holland America Line

Last reported at 2018-Oct-24 05:02 UTC. Time now 2018-Oct-24 05:21 UTC.
Position N 41°39' E 007°11'.

Length 134 m; draft 4.1 m.

Type: Ship. MMSI: 309163000.

Date/timePositionNaut miles runAvg speedWind from/ knotsBaromVisibWave heightAir tempDewpointWater temp
2018-Oct-24 05:02N 41°39' E 007°11'0 9.6
2018-Oct-24 05:00N 41°40' E 007°12'5 9.4
2018-Oct-24 04:30N 41°43' E 007°16'6 9.5
2018-Oct-24 03:52N 41°46' E 007°23'4 9.7
2018-Oct-24 03:30N 41°49' E 007°26'4 9.9
2018-Oct-24 03:03N 41°52' E 007°30'110.1
2018-Oct-24 03:00N 41°52' E 007°31'510.2
2018-Oct-24 02:31N 41°55' E 007°36'510.3
2018-Oct-24 02:03N 41°58' E 007°41'010.2
2018-Oct-24 02:00N 41°58' E 007°42'510.5
2018-Oct-24 01:31N 42°02' E 007°47'510.5
2018-Oct-24 01:03N 42°05' E 007°52'110.4
2018-Oct-24 01:00N 42°05' E 007°53'510.3
2018-Oct-24 00:31N 42°08' E 007°58'510.4
2018-Oct-24 00:04N 42°11' E 008°03'110.3
2018-Oct-24 00:01N 42°12' E 008°03'510.4
2018-Oct-23 23:30N 42°15' E 008°09'510.4
2018-Oct-23 23:03N 42°18' E 008°14'110.4
2018-Oct-23 23:00N 42°18' E 008°14'510.3
2018-Oct-23 22:30N 42°22' E 008°20'510.4
2018-Oct-23 22:03N 42°25' E 008°25'110.2
2018-Oct-23 22:00N 42°25' E 008°25'510.3
2018-Oct-23 21:30N 42°28' E 008°30'410.1
2018-Oct-23 21:03N 42°31' E 008°35'010.3
2018-Oct-23 21:01N 42°31' E 008°36'510.3
2018-Oct-23 20:31N 42°35' E 008°41'4 8.3
2018-Oct-23 20:03N 42°34' E 008°46'0 6.4
2018-Oct-23 20:00N 42°34' E 008°46'0 0.6
2018-Oct-23 19:31N 42°34' E 008°46'0 0.0
2018-Oct-23 19:03N 42°34' E 008°46'0 0.0
2018-Oct-23 18:59N 42°34' E 008°46'0 0.0
2018-Oct-23 18:30N 42°34' E 008°46'0 0.0
2018-Oct-23 18:03N 42°34' E 008°46'0 0.0
2018-Oct-23 18:00N 42°34' E 008°46'0 0.0
2018-Oct-23 17:30N 42°34' E 008°46'0 0.0
2018-Oct-23 17:03N 42°34' E 008°46'0 0.2
2018-Oct-23 17:00N 42°34' E 008°46'0 0.0
2018-Oct-23 16:30N 42°34' E 008°46'0 0.0
2018-Oct-23 16:03N 42°34' E 008°46'0 0.2
2018-Oct-23 16:00N 42°34' E 008°46'0 0.1
2018-Oct-23 15:30N 42°34' E 008°46'0 0.0
2018-Oct-23 15:03N 42°34' E 008°46'0 0.4
2018-Oct-23 15:00N 42°34' E 008°46'0 0.0
2018-Oct-23 14:00N 42°34' E 008°46'0 0.0
2018-Oct-23 13:30N 42°34' E 008°46'0 0.0
2018-Oct-23 13:03N 42°34' E 008°46'0 0.2
2018-Oct-23 13:00N 42°34' E 008°46'0 0.0
2018-Oct-23 12:30N 42°34' E 008°46'0 0.0
2018-Oct-23 12:03N 42°34' E 008°46'0 0.3
2018-Oct-23 12:00N 42°34' E 008°46'0 0.1
2018-Oct-23 11:30N 42°34' E 008°46'0 0.1
2018-Oct-23 11:03N 42°34' E 008°46'0 0.4
2018-Oct-23 11:00N 42°34' E 008°46'0 0.0
2018-Oct-23 10:30N 42°34' E 008°46'0 0.0
2018-Oct-23 10:03N 42°34' E 008°46'0 0.1
2018-Oct-23 10:00N 42°34' E 008°46'0 0.0
2018-Oct-23 09:30N 42°34' E 008°46'0 0.0
2018-Oct-23 09:03N 42°34' E 008°46'0 0.4
2018-Oct-23 09:00N 42°34' E 008°46'0 0.0
2018-Oct-23 08:30N 42°34' E 008°46'0 0.0
2018-Oct-23 08:03N 42°34' E 008°46'0 0.1
2018-Oct-23 08:00N 42°34' E 008°46'0 0.1
2018-Oct-23 07:30N 42°34' E 008°46'0 0.7
2018-Oct-23 07:03N 42°34' E 008°46'0 4.4
2018-Oct-23 07:00N 42°34' E 008°46'5 8.7
2018-Oct-23 06:26N 42°39' E 008°49'2010.1
2018-Oct-23 04:29N 42°45' E 009°15'24 1.2
2018-Oct-22 07:41N 43°07' E 009°28'210.2
2018-Oct-22 07:30N 43°06' E 009°30'24 4.2
2018-Oct-22 01:55N 42°46' E 009°48'14 3.9
2018-Oct-21 22:28N 42°51' E 010°05'2 4.3
2018-Oct-21 22:03N 42°52' E 010°08'1 4.3
2018-Oct-21 21:48N 42°52' E 010°09'2 4.7
2018-Oct-21 21:27N 42°52' E 010°11'7 1.4
2018-Oct-21 16:40N 42°49' E 010°19'0 0.0
2018-Oct-21 16:28N 42°49' E 010°19'0 0.0
2018-Oct-21 15:25N 42°49' E 010°19'0 0.0
2018-Oct-21 11:46N 42°49' E 010°19'0 0.0
2018-Oct-21 09:16N 42°49' E 010°19'0 0.0
2018-Oct-21 08:58N 42°49' E 010°19'0 0.0
2018-Oct-21 08:28N 42°49' E 010°19'0 0.0
2018-Oct-21 07:46N 42°49' E 010°19'0 0.0
2018-Oct-21 06:16N 42°49' E 010°19'0 0.0
2018-Oct-21 06:02N 42°49' E 010°19'0 0.1
2018-Oct-21 06:00N 42°49' E 010°19'1 1.8
2018-Oct-21 05:30N 42°49' E 010°21'2 4.1
2018-Oct-21 05:03N 42°51' E 010°21'0 4.0
2018-Oct-21 05:01N 42°51' E 010°21'3 5.2
2018-Oct-21 04:31N 42°53' E 010°22'2 4.9
2018-Oct-21 04:03N 42°54' E 010°25'0 6.8
2018-Oct-21 04:00N 42°54' E 010°25'3 6.9
2018-Oct-21 03:30N 42°53' E 010°30'3 7.1
2018-Oct-21 03:02N 42°50' E 010°31'0 7.2
2018-Oct-21 03:00N 42°50' E 010°32'29 7.0
2018-Oct-20 22:48N 42°22' E 010°41'121 4.2
2018-Oct-19 17:56N 41°10' E 012°52'26 9.9
2018-Oct-19 15:19N 40°57' E 013°21'20 9.9
2018-Oct-19 13:16N 40°44' E 013°42'510.8
2018-Oct-19 12:50N 40°41' E 013°47'310.4
2018-Oct-19 12:31N 40°39' E 013°51'510.1
2018-Oct-19 12:04N 40°38' E 013°57'110.2
2018-Oct-19 12:00N 40°39' E 013°57'510.0
2018-Oct-19 11:30N 40°39' E 014°04'510.4
2018-Oct-19 11:03N 40°40' E 014°10'010.2
2018-Oct-19 11:00N 40°39' E 014°11'510.2
2018-Oct-19 10:31N 40°39' E 014°17'4 8.2
2018-Oct-19 09:59N 40°38' E 014°23'0 0.1
2018-Oct-19 09:23N 40°38' E 014°23'0 0.1
2018-Oct-19 09:00N 40°38' E 014°23'0 0.0
2018-Oct-19 08:16N 40°38' E 014°23'0 0.1
2018-Oct-19 08:03N 40°38' E 014°23'0 0.1
2018-Oct-19 07:55N 40°38' E 014°23'0 0.0
2018-Oct-19 07:26N 40°38' E 014°23'0 0.0
2018-Oct-19 06:57N 40°38' E 014°23'0 0.0
2018-Oct-19 06:23N 40°38' E 014°23'0 0.1
2018-Oct-19 06:03N 40°38' E 014°23'0 0.2
2018-Oct-19 06:00N 40°38' E 014°23'0 0.0
2018-Oct-19 05:30N 40°38' E 014°23'0 0.1
2018-Oct-19 05:03N 40°38' E 014°23'0 0.3
2018-Oct-19 05:00N 40°38' E 014°23'0 0.1
2018-Oct-19 04:30N 40°38' E 014°23'0 0.1
2018-Oct-19 04:03N 40°38' E 014°23'0 0.0
2018-Oct-19 04:00N 40°38' E 014°23'0 0.1
2018-Oct-19 03:30N 40°38' E 014°23'0 0.0
2018-Oct-19 03:03N 40°38' E 014°23'0 0.3
2018-Oct-19 03:00N 40°38' E 014°23'0 0.0
2018-Oct-19 02:30N 40°38' E 014°23'0 0.0
2018-Oct-19 02:03N 40°38' E 014°23'0 0.2
2018-Oct-19 02:00N 40°38' E 014°23'0 0.0
2018-Oct-19 01:30N 40°38' E 014°23'0 0.0
2018-Oct-19 01:03N 40°38' E 014°23'0 0.2
2018-Oct-19 01:00N 40°38' E 014°23'0 0.0
2018-Oct-19 00:30N 40°38' E 014°23'0 0.0
2018-Oct-19 00:03N 40°38' E 014°23'0 0.2
2018-Oct-19 00:00N 40°38' E 014°23'0 0.0
2018-Oct-18 23:30N 40°38' E 014°23'0 0.0
2018-Oct-18 23:03N 40°38' E 014°23'0 0.2
2018-Oct-18 23:00N 40°38' E 014°23'0 0.0
2018-Oct-18 22:30N 40°38' E 014°23'0 0.0
2018-Oct-18 22:03N 40°38' E 014°23'0 0.0
2018-Oct-18 22:00N 40°38' E 014°23'0 0.0
2018-Oct-18 21:30N 40°38' E 014°23'0 0.0
2018-Oct-18 21:03N 40°38' E 014°23'0 0.1
2018-Oct-18 21:00N 40°38' E 014°23'0 0.0
2018-Oct-18 20:30N 40°38' E 014°23'0 0.0
2018-Oct-18 20:03N 40°38' E 014°23'0 0.2
2018-Oct-18 20:00N 40°38' E 014°23'0 0.0
2018-Oct-18 19:30N 40°38' E 014°23'0 0.1
2018-Oct-18 19:03N 40°38' E 014°23'0 0.1
2018-Oct-18 19:00N 40°38' E 014°23'0 0.1
2018-Oct-18 18:30N 40°38' E 014°23'0 0.0
2018-Oct-18 18:04N 40°38' E 014°23'0 0.2
2018-Oct-18 18:00N 40°38' E 014°23'0 0.1
2018-Oct-18 17:30N 40°38' E 014°23'0 0.0
2018-Oct-18 17:03N 40°38' E 014°23'0 0.0
2018-Oct-18 17:00N 40°38' E 014°23'0 0.1
2018-Oct-18 16:30N 40°38' E 014°23'0 0.1
2018-Oct-18 16:03N 40°38' E 014°23'0 0.0
2018-Oct-18 16:00N 40°38' E 014°23'0 0.1
2018-Oct-18 15:31N 40°38' E 014°23'0 0.1
2018-Oct-18 15:03N 40°38' E 014°23'0 0.2
2018-Oct-18 15:00N 40°38' E 014°23'0 0.0
2018-Oct-18 14:30N 40°38' E 014°23'0 0.0
2018-Oct-18 14:00N 40°38' E 014°23'0 0.0
2018-Oct-18 13:30N 40°38' E 014°23'0 0.0
2018-Oct-18 13:03N 40°38' E 014°23'0 0.3
2018-Oct-18 13:00N 40°38' E 014°23'0 0.1
2018-Oct-18 12:30N 40°38' E 014°23'0 0.0
2018-Oct-18 12:03N 40°38' E 014°23'0 0.3
2018-Oct-18 12:00N 40°38' E 014°23'0 0.1
2018-Oct-18 11:30N 40°38' E 014°23'0 0.1
2018-Oct-18 11:03N 40°38' E 014°23'0 0.0
2018-Oct-18 11:00N 40°38' E 014°23'0 0.1
2018-Oct-18 10:30N 40°38' E 014°23'0 0.1
2018-Oct-18 10:03N 40°38' E 014°23'0 0.3
2018-Oct-18 10:00N 40°38' E 014°23'0 0.0
2018-Oct-18 09:30N 40°38' E 014°23'0 0.0
2018-Oct-18 09:03N 40°38' E 014°23'0 0.2
2018-Oct-18 09:00N 40°38' E 014°23'0 0.0
2018-Oct-18 08:30N 40°38' E 014°23'0 0.0
2018-Oct-18 08:03N 40°38' E 014°23'0 0.2
2018-Oct-18 08:00N 40°38' E 014°23'0 0.1
2018-Oct-18 07:30N 40°38' E 014°23'0 0.0
2018-Oct-18 07:03N 40°38' E 014°23'0 0.2
2018-Oct-18 07:00N 40°38' E 014°23'0 0.0
2018-Oct-18 06:30N 40°38' E 014°23'0 0.7
2018-Oct-18 06:03N 40°38' E 014°22'0 2.8
2018-Oct-18 06:00N 40°39' E 014°22'3 5.1
2018-Oct-18 05:30N 40°39' E 014°19'3 5.9
2018-Oct-18 05:03N 40°37' E 014°17'0 6.4
2018-Oct-18 05:00N 40°36' E 014°17'3 6.1
2018-Oct-18 04:29N 40°33' E 014°18'3 6.4
2018-Oct-18 04:03N 40°31' E 014°20'0 6.2
2018-Oct-18 04:00N 40°30' E 014°20'3 6.3
2018-Oct-18 03:30N 40°28' E 014°22'3 6.6
2018-Oct-18 03:03N 40°25' E 014°23'0 6.6
2018-Oct-18 03:00N 40°25' E 014°23'3 6.7
2018-Oct-18 02:30N 40°22' E 014°25'3 6.5
2018-Oct-18 02:03N 40°19' E 014°27'0 6.3
2018-Oct-18 02:00N 40°19' E 014°27'3 6.4
2018-Oct-18 01:30N 40°16' E 014°29'4 8.4
2018-Oct-18 01:02N 40°12' E 014°31'0 8.8
2018-Oct-18 01:00N 40°12' E 014°31'5 8.5
2018-Oct-18 00:26N 40°08' E 014°34'10710.4
2018-Oct-17 14:11N 38°32' E 015°35'811.1
2018-Oct-17 13:30N 38°25' E 015°38'511.3
2018-Oct-17 13:03N 38°20' E 015°41'111.5
2018-Oct-17 12:58N 38°19' E 015°41'510.0
2018-Oct-17 12:28N 38°15' E 015°39'4 9.2
2018-Oct-17 12:00N 38°12' E 015°34'1 0.1
2018-Oct-17 05:37N 38°12' E 015°34'0 1.3
2018-Oct-17 05:30N 38°12' E 015°34'2 5.3
2018-Oct-17 05:03N 38°13' E 015°36'0 6.0
2018-Oct-17 05:00N 38°13' E 015°37'4 7.9
2018-Oct-17 04:27N 38°08' E 015°36'3 8.3
2018-Oct-17 04:03N 38°05' E 015°36'0 8.5
2018-Oct-17 04:00N 38°05' E 015°36'5 8.5
2018-Oct-17 03:28N 38°00' E 015°35'4 8.1
2018-Oct-17 02:58N 37°56' E 015°36'9 9.0
2018-Oct-17 01:55N 37°49' E 015°44'4 8.7
2018-Oct-17 01:30N 37°47' E 015°47'4 9.1
2018-Oct-17 01:03N 37°44' E 015°51'0 9.9
2018-Oct-17 01:00N 37°43' E 015°51'4 7.5
2018-Oct-17 00:27N 37°42' E 015°56'  
Track history (hours):
 
Tides and Currents Weather Stations Pressure Air Temp Water Temp Dewpoint Dewpoint Depression Visibility Wind Speed Wind Dir Waves Ship Positions

Wind Star

Operator: Holland America Line

Last reported at 2018-Oct-24 05:02 UTC. Time now 2018-Oct-24 05:21 UTC.
Position N 41°39' E 007°11'.

Length 134 m; draft 4.1 m.

Type: Ship. MMSI: 309163000.

Date/timePositionNaut miles runAvg speedWind from/ knotsBaromVisibWave heightAir tempDewpointWater temp
2018-Oct-24 05:02N 41°39' E 007°11'0 9.6
2018-Oct-24 05:00N 41°40' E 007°12'5 9.4
2018-Oct-24 04:30N 41°43' E 007°16'6 9.5
2018-Oct-24 03:52N 41°46' E 007°23'4 9.7
2018-Oct-24 03:30N 41°49' E 007°26'4 9.9
2018-Oct-24 03:03N 41°52' E 007°30'110.1
2018-Oct-24 03:00N 41°52' E 007°31'510.2
2018-Oct-24 02:31N 41°55' E 007°36'510.3
2018-Oct-24 02:03N 41°58' E 007°41'010.2
2018-Oct-24 02:00N 41°58' E 007°42'510.5
2018-Oct-24 01:31N 42°02' E 007°47'510.5
2018-Oct-24 01:03N 42°05' E 007°52'110.4
2018-Oct-24 01:00N 42°05' E 007°53'510.3
2018-Oct-24 00:31N 42°08' E 007°58'510.4
2018-Oct-24 00:04N 42°11' E 008°03'110.3
2018-Oct-24 00:01N 42°12' E 008°03'510.4
2018-Oct-23 23:30N 42°15' E 008°09'510.4
2018-Oct-23 23:03N 42°18' E 008°14'110.4
2018-Oct-23 23:00N 42°18' E 008°14'510.3
2018-Oct-23 22:30N 42°22' E 008°20'510.4
2018-Oct-23 22:03N 42°25' E 008°25'110.2
2018-Oct-23 22:00N 42°25' E 008°25'510.3
2018-Oct-23 21:30N 42°28' E 008°30'410.1
2018-Oct-23 21:03N 42°31' E 008°35'010.3
2018-Oct-23 21:01N 42°31' E 008°36'510.3
2018-Oct-23 20:31N 42°35' E 008°41'4 8.3
2018-Oct-23 20:03N 42°34' E 008°46'0 6.4
2018-Oct-23 20:00N 42°34' E 008°46'0 0.6
2018-Oct-23 19:31N 42°34' E 008°46'0 0.0
2018-Oct-23 19:03N 42°34' E 008°46'0 0.0
2018-Oct-23 18:59N 42°34' E 008°46'0 0.0
2018-Oct-23 18:30N 42°34' E 008°46'0 0.0
2018-Oct-23 18:03N 42°34' E 008°46'0 0.0
2018-Oct-23 18:00N 42°34' E 008°46'0 0.0
2018-Oct-23 17:30N 42°34' E 008°46'0 0.0
2018-Oct-23 17:03N 42°34' E 008°46'0 0.2
2018-Oct-23 17:00N 42°34' E 008°46'0 0.0
2018-Oct-23 16:30N 42°34' E 008°46'0 0.0
2018-Oct-23 16:03N 42°34' E 008°46'0 0.2
2018-Oct-23 16:00N 42°34' E 008°46'0 0.1
2018-Oct-23 15:30N 42°34' E 008°46'0 0.0
2018-Oct-23 15:03N 42°34' E 008°46'0 0.4
2018-Oct-23 15:00N 42°34' E 008°46'0 0.0
2018-Oct-23 14:00N 42°34' E 008°46'0 0.0
2018-Oct-23 13:30N 42°34' E 008°46'0 0.0
2018-Oct-23 13:03N 42°34' E 008°46'0 0.2
2018-Oct-23 13:00N 42°34' E 008°46'0 0.0
2018-Oct-23 12:30N 42°34' E 008°46'0 0.0
2018-Oct-23 12:03N 42°34' E 008°46'0 0.3
2018-Oct-23 12:00N 42°34' E 008°46'0 0.1
2018-Oct-23 11:30N 42°34' E 008°46'0 0.1
2018-Oct-23 11:03N 42°34' E 008°46'0 0.4
2018-Oct-23 11:00N 42°34' E 008°46'0 0.0
2018-Oct-23 10:30N 42°34' E 008°46'0 0.0
2018-Oct-23 10:03N 42°34' E 008°46'0 0.1
2018-Oct-23 10:00N 42°34' E 008°46'0 0.0
2018-Oct-23 09:30N 42°34' E 008°46'0 0.0
2018-Oct-23 09:03N 42°34' E 008°46'0 0.4
2018-Oct-23 09:00N 42°34' E 008°46'0 0.0
2018-Oct-23 08:30N 42°34' E 008°46'0 0.0
2018-Oct-23 08:03N 42°34' E 008°46'0 0.1
2018-Oct-23 08:00N 42°34' E 008°46'0 0.1
2018-Oct-23 07:30N 42°34' E 008°46'0 0.7
2018-Oct-23 07:03N 42°34' E 008°46'0 4.4
2018-Oct-23 07:00N 42°34' E 008°46'5 8.7
2018-Oct-23 06:26N 42°39' E 008°49'2010.1
2018-Oct-23 04:29N 42°45' E 009°15'24 1.2
2018-Oct-22 07:41N 43°07' E 009°28'210.2
2018-Oct-22 07:30N 43°06' E 009°30'24 4.2
2018-Oct-22 01:55N 42°46' E 009°48'14 3.9
2018-Oct-21 22:28N 42°51' E 010°05'2 4.3
2018-Oct-21 22:03N 42°52' E 010°08'1 4.3
2018-Oct-21 21:48N 42°52' E 010°09'2 4.7
2018-Oct-21 21:27N 42°52' E 010°11'7 1.4
2018-Oct-21 16:40N 42°49' E 010°19'0 0.0
2018-Oct-21 16:28N 42°49' E 010°19'0 0.0
2018-Oct-21 15:25N 42°49' E 010°19'0 0.0
2018-Oct-21 11:46N 42°49' E 010°19'0 0.0
2018-Oct-21 09:16N 42°49' E 010°19'0 0.0
2018-Oct-21 08:58N 42°49' E 010°19'0 0.0
2018-Oct-21 08:28N 42°49' E 010°19'0 0.0
2018-Oct-21 07:46N 42°49' E 010°19'0 0.0
2018-Oct-21 06:16N 42°49' E 010°19'0 0.0
2018-Oct-21 06:02N 42°49' E 010°19'0 0.1
2018-Oct-21 06:00N 42°49' E 010°19'1 1.8
2018-Oct-21 05:30N 42°49' E 010°21'2 4.1
2018-Oct-21 05:03N 42°51' E 010°21'0 4.0
2018-Oct-21 05:01N 42°51' E 010°21'3 5.2
2018-Oct-21 04:31N 42°53' E 010°22'2 4.9
2018-Oct-21 04:03N 42°54' E 010°25'0 6.8
2018-Oct-21 04:00N 42°54' E 010°25'3 6.9
2018-Oct-21 03:30N 42°53' E 010°30'3 7.1
2018-Oct-21 03:02N 42°50' E 010°31'0 7.2
2018-Oct-21 03:00N 42°50' E 010°32'29 7.0
2018-Oct-20 22:48N 42°22' E 010°41'121 4.2
2018-Oct-19 17:56N 41°10' E 012°52'26 9.9
2018-Oct-19 15:19N 40°57' E 013°21'20 9.9
2018-Oct-19 13:16N 40°44' E 013°42'510.8
2018-Oct-19 12:50N 40°41' E 013°47'310.4
2018-Oct-19 12:31N 40°39' E 013°51'510.1
2018-Oct-19 12:04N 40°38' E 013°57'110.2
2018-Oct-19 12:00N 40°39' E 013°57'510.0
2018-Oct-19 11:30N 40°39' E 014°04'510.4
2018-Oct-19 11:03N 40°40' E 014°10'010.2
2018-Oct-19 11:00N 40°39' E 014°11'510.2
2018-Oct-19 10:31N 40°39' E 014°17'4 8.2
2018-Oct-19 09:59N 40°38' E 014°23'0 0.1
2018-Oct-19 09:23N 40°38' E 014°23'0 0.1
2018-Oct-19 09:00N 40°38' E 014°23'0 0.0
2018-Oct-19 08:16N 40°38' E 014°23'0 0.1
2018-Oct-19 08:03N 40°38' E 014°23'0 0.1
2018-Oct-19 07:55N 40°38' E 014°23'0 0.0
2018-Oct-19 07:26N 40°38' E 014°23'0 0.0
2018-Oct-19 06:57N 40°38' E 014°23'0 0.0
2018-Oct-19 06:23N 40°38' E 014°23'0 0.1
2018-Oct-19 06:03N 40°38' E 014°23'0 0.2
2018-Oct-19 06:00N 40°38' E 014°23'0 0.0
2018-Oct-19 05:30N 40°38' E 014°23'0 0.1
2018-Oct-19 05:03N 40°38' E 014°23'0 0.3
2018-Oct-19 05:00N 40°38' E 014°23'0 0.1
2018-Oct-19 04:30N 40°38' E 014°23'0 0.1
2018-Oct-19 04:03N 40°38' E 014°23'0 0.0
2018-Oct-19 04:00N 40°38' E 014°23'0 0.1
2018-Oct-19 03:30N 40°38' E 014°23'0 0.0
2018-Oct-19 03:03N 40°38' E 014°23'0 0.3
2018-Oct-19 03:00N 40°38' E 014°23'0 0.0
2018-Oct-19 02:30N 40°38' E 014°23'0 0.0
2018-Oct-19 02:03N 40°38' E 014°23'0 0.2
2018-Oct-19 02:00N 40°38' E 014°23'0 0.0
2018-Oct-19 01:30N 40°38' E 014°23'0 0.0
2018-Oct-19 01:03N 40°38' E 014°23'0 0.2
2018-Oct-19 01:00N 40°38' E 014°23'0 0.0
2018-Oct-19 00:30N 40°38' E 014°23'0 0.0
2018-Oct-19 00:03N 40°38' E 014°23'0 0.2
2018-Oct-19 00:00N 40°38' E 014°23'0 0.0
2018-Oct-18 23:30N 40°38' E 014°23'0 0.0
2018-Oct-18 23:03N 40°38' E 014°23'0 0.2
2018-Oct-18 23:00N 40°38' E 014°23'0 0.0
2018-Oct-18 22:30N 40°38' E 014°23'0 0.0
2018-Oct-18 22:03N 40°38' E 014°23'0 0.0
2018-Oct-18 22:00N 40°38' E 014°23'0 0.0
2018-Oct-18 21:30N 40°38' E 014°23'0 0.0
2018-Oct-18 21:03N 40°38' E 014°23'0 0.1
2018-Oct-18 21:00N 40°38' E 014°23'0 0.0
2018-Oct-18 20:30N 40°38' E 014°23'0 0.0
2018-Oct-18 20:03N 40°38' E 014°23'0 0.2
2018-Oct-18 20:00N 40°38' E 014°23'0 0.0
2018-Oct-18 19:30N 40°38' E 014°23'0 0.1
2018-Oct-18 19:03N 40°38' E 014°23'0 0.1
2018-Oct-18 19:00N 40°38' E 014°23'0 0.1
2018-Oct-18 18:30N 40°38' E 014°23'0 0.0
2018-Oct-18 18:04N 40°38' E 014°23'0 0.2
2018-Oct-18 18:00N 40°38' E 014°23'0 0.1
2018-Oct-18 17:30N 40°38' E 014°23'0 0.0
2018-Oct-18 17:03N 40°38' E 014°23'0 0.0
2018-Oct-18 17:00N 40°38' E 014°23'0 0.1
2018-Oct-18 16:30N 40°38' E 014°23'0 0.1
2018-Oct-18 16:03N 40°38' E 014°23'0 0.0
2018-Oct-18 16:00N 40°38' E 014°23'0 0.1
2018-Oct-18 15:31N 40°38' E 014°23'0 0.1
2018-Oct-18 15:03N 40°38' E 014°23'0 0.2
2018-Oct-18 15:00N 40°38' E 014°23'0 0.0
2018-Oct-18 14:30N 40°38' E 014°23'0 0.0
2018-Oct-18 14:00N 40°38' E 014°23'0 0.0
2018-Oct-18 13:30N 40°38' E 014°23'0 0.0
2018-Oct-18 13:03N 40°38' E 014°23'0 0.3
2018-Oct-18 13:00N 40°38' E 014°23'0 0.1
2018-Oct-18 12:30N 40°38' E 014°23'0 0.0
2018-Oct-18 12:03N 40°38' E 014°23'0 0.3
2018-Oct-18 12:00N 40°38' E 014°23'0 0.1
2018-Oct-18 11:30N 40°38' E 014°23'0 0.1
2018-Oct-18 11:03N 40°38' E 014°23'0 0.0
2018-Oct-18 11:00N 40°38' E 014°23'0 0.1
2018-Oct-18 10:30N 40°38' E 014°23'0 0.1
2018-Oct-18 10:03N 40°38' E 014°23'0 0.3
2018-Oct-18 10:00N 40°38' E 014°23'0 0.0
2018-Oct-18 09:30N 40°38' E 014°23'0 0.0
2018-Oct-18 09:03N 40°38' E 014°23'0 0.2
2018-Oct-18 09:00N 40°38' E 014°23'0 0.0
2018-Oct-18 08:30N 40°38' E 014°23'0 0.0
2018-Oct-18 08:03N 40°38' E 014°23'0 0.2
2018-Oct-18 08:00N 40°38' E 014°23'0 0.1
2018-Oct-18 07:30N 40°38' E 014°23'0 0.0
2018-Oct-18 07:03N 40°38' E 014°23'0 0.2
2018-Oct-18 07:00N 40°38' E 014°23'0 0.0
2018-Oct-18 06:30N 40°38' E 014°23'0 0.7
2018-Oct-18 06:03N 40°38' E 014°22'0 2.8
2018-Oct-18 06:00N 40°39' E 014°22'3 5.1
2018-Oct-18 05:30N 40°39' E 014°19'3 5.9
2018-Oct-18 05:03N 40°37' E 014°17'0 6.4
2018-Oct-18 05:00N 40°36' E 014°17'3 6.1
2018-Oct-18 04:29N 40°33' E 014°18'3 6.4
2018-Oct-18 04:03N 40°31' E 014°20'0 6.2
2018-Oct-18 04:00N 40°30' E 014°20'3 6.3
2018-Oct-18 03:30N 40°28' E 014°22'3 6.6
2018-Oct-18 03:03N 40°25' E 014°23'0 6.6
2018-Oct-18 03:00N 40°25' E 014°23'3 6.7
2018-Oct-18 02:30N 40°22' E 014°25'3 6.5
2018-Oct-18 02:03N 40°19' E 014°27'0 6.3
2018-Oct-18 02:00N 40°19' E 014°27'3 6.4
2018-Oct-18 01:30N 40°16' E 014°29'4 8.4
2018-Oct-18 01:02N 40°12' E 014°31'0 8.8
2018-Oct-18 01:00N 40°12' E 014°31'5 8.5
2018-Oct-18 00:26N 40°08' E 014°34'10710.4
2018-Oct-17 14:11N 38°32' E 015°35'811.1
2018-Oct-17 13:30N 38°25' E 015°38'511.3
2018-Oct-17 13:03N 38°20' E 015°41'111.5
2018-Oct-17 12:58N 38°19' E 015°41'510.0
2018-Oct-17 12:28N 38°15' E 015°39'4 9.2
2018-Oct-17 12:00N 38°12' E 015°34'1 0.1
2018-Oct-17 05:37N 38°12' E 015°34'0 1.3
2018-Oct-17 05:30N 38°12' E 015°34'2 5.3
2018-Oct-17 05:03N 38°13' E 015°36'0 6.0
2018-Oct-17 05:00N 38°13' E 015°37'4 7.9
2018-Oct-17 04:27N 38°08' E 015°36'3 8.3
2018-Oct-17 04:03N 38°05' E 015°36'0 8.5
2018-Oct-17 04:00N 38°05' E 015°36'5 8.5
2018-Oct-17 03:28N 38°00' E 015°35'4 8.1
2018-Oct-17 02:58N 37°56' E 015°36'9 9.0
2018-Oct-17 01:55N 37°49' E 015°44'4 8.7
2018-Oct-17 01:30N 37°47' E 015°47'4 9.1
2018-Oct-17 01:03N 37°44' E 015°51'0 9.9
2018-Oct-17 01:00N 37°43' E 015°51'4 7.5
2018-Oct-17 00:27N 37°42' E 015°56'  

Dump ship's entire track history